createdAt,value
2023-02-11T01:13:43.888Z,0.43
2023-02-11T01:16:10.934Z,0.41
2023-02-11T01:18:38.271Z,0.43
2023-02-11T01:23:51.928Z,0.39
2023-02-11T01:26:19.214Z,0.31
2023-02-11T01:28:46.004Z,0.24
2023-02-11T01:31:13.910Z,0.17
2023-02-11T01:33:41.017Z,0.12
2023-02-11T01:36:08.479Z,0.09
2023-02-11T01:38:35.834Z,0.07
2023-02-11T01:41:04.647Z,0.06
2023-02-11T01:43:35.929Z,0.02
2023-02-11T01:46:23.017Z,0.00
2023-02-11T01:48:54.849Z,0.01
2023-02-11T01:51:26.827Z,-0.01
2023-02-11T01:54:12.422Z,-0.01
2023-02-11T01:57:00.721Z,-0.02
2023-02-11T01:59:30.338Z,-0.03
2023-02-11T02:01:59.505Z,-0.02
2023-02-11T02:04:30.822Z,-0.02
2023-02-11T02:39:25.695Z,-0.25
2023-02-11T02:42:43.026Z,-0.26
2023-02-11T03:16:49.710Z,-0.36
2023-02-11T04:26:46.429Z,-0.43
2023-02-11T05:10:48.480Z,-0.57
2023-02-11T05:42:54.628Z,-0.56
2023-02-11T05:50:05.054Z,-0.57
2023-02-11T05:57:15.893Z,-0.55
2023-02-11T06:04:25.819Z,-0.57
2023-02-11T06:43:18.602Z,-0.33
2023-02-11T06:55:04.589Z,-0.36
2023-02-11T07:06:33.923Z,-0.37
2023-02-11T07:22:36.719Z,-0.39
2023-02-11T07:34:00.221Z,-0.51
2023-02-11T09:15:06.988Z,1.86
2023-02-11T09:17:35.333Z,2.04
2023-02-11T09:20:04.179Z,2.12
2023-02-11T09:22:33.142Z,2.08
2023-02-11T09:25:02.506Z,2.01
2023-02-11T09:27:30.857Z,1.97
2023-02-11T09:30:01.641Z,1.99
2023-02-11T09:32:47.247Z,2.04
2023-02-11T09:35:15.637Z,2.12
2023-02-11T09:37:44.111Z,2.22
2023-02-11T09:40:12.996Z,2.22
2023-02-11T09:46:09.346Z,1.84
2023-02-11T09:48:40.106Z,1.68
2023-02-11T09:51:14.767Z,1.51
2023-02-11T09:54:05.218Z,1.42
2023-02-11T09:56:33.863Z,1.38
2023-02-11T09:59:01.979Z,1.35
2023-02-11T10:01:42.222Z,1.28
2023-02-11T10:04:14.509Z,1.21
2023-02-11T11:15:18.240Z,1.29
2023-02-11T11:18:22.093Z,1.27
2023-02-11T11:38:48.799Z,1.32
2023-02-11T12:50:41.096Z,4.22
2023-02-11T17:15:10.594Z,1.07
2023-02-11T17:28:13.732Z,1.06
2023-02-11T17:30:43.913Z,1.06
2023-02-11T17:33:12.421Z,1.06
2023-02-11T17:35:41.413Z,1.06
2023-02-11T17:38:09.500Z,1.05
2023-02-11T17:40:38.821Z,1.06
2023-02-11T17:43:25.291Z,1.05
2023-02-11T17:45:53.727Z,1.06
2023-02-11T17:48:22.252Z,1.06
2023-02-11T17:50:50.762Z,1.06
2023-02-11T17:53:20.443Z,1.05
2023-02-11T17:55:49.684Z,1.04
2023-02-11T17:58:18.370Z,1.04
2023-02-11T18:00:46.732Z,1.04
2023-02-11T18:03:14.841Z,1.04
2023-02-11T18:05:43.564Z,1.04
2023-02-11T18:08:12.349Z,1.04
2023-02-11T18:10:42.272Z,1.04
2023-02-11T18:13:10.531Z,1.04
2023-02-11T18:15:40.045Z,1.04
2023-02-11T18:18:08.421Z,1.05
2023-02-11T18:20:36.900Z,1.05
2023-02-11T18:23:05.177Z,1.07
2023-02-11T18:25:33.463Z,1.09
2023-02-11T18:28:02.886Z,1.11
2023-02-11T18:30:31.419Z,1.13
2023-02-11T18:33:00.232Z,1.14
2023-02-11T18:35:29.116Z,1.13
2023-02-11T18:38:00.665Z,1.13
2023-02-11T18:40:29.475Z,1.12
2023-02-11T18:42:58.768Z,1.11
2023-02-11T18:45:29.286Z,1.12
2023-02-11T18:47:57.587Z,1.13
2023-02-11T18:50:25.840Z,1.12
2023-02-11T18:52:53.831Z,1.11
2023-02-11T18:55:25.541Z,1.10
2023-02-11T18:57:53.693Z,1.10
2023-02-11T19:00:25.219Z,1.08
2023-02-11T19:02:53.456Z,1.03
2023-02-11T19:19:10.156Z,0.63
2023-02-11T19:30:55.298Z,0.60
2023-02-11T19:51:42.014Z,0.52
2023-02-11T20:16:48.583Z,0.52
2023-02-11T21:45:25.176Z,0.77
